createdAt,value
2018-07-05T00:02:17.963Z,4.87
2018-07-05T00:04:57.630Z,5.50
2018-07-05T00:07:37.331Z,5.37
2018-07-05T00:10:16.833Z,7.67
2018-07-05T00:12:56.329Z,5.80
2018-07-05T00:15:35.934Z,6.93
2018-07-05T00:18:15.250Z,5.83
2018-07-05T00:20:54.763Z,5.27
2018-07-05T00:23:34.170Z,5.80
2018-07-05T00:26:13.785Z,5.43
2018-07-05T00:28:53.242Z,5.40
2018-07-05T00:31:32.699Z,5.97
2018-07-05T00:34:12.166Z,4.47
2018-07-05T00:36:51.715Z,4.93
2018-07-05T00:39:31.066Z,4.97
2018-07-05T00:42:10.689Z,5.53
2018-07-05T00:44:50.149Z,5.23
2018-07-05T00:47:29.754Z,4.63
2018-07-05T00:50:09.192Z,5.30
2018-07-05T00:52:49.003Z,4.70
2018-07-05T00:55:28.619Z,5.63
2018-07-05T00:58:08.187Z,5.07
2018-07-05T01:00:47.779Z,4.83
2018-07-05T01:03:27.254Z,4.87
2018-07-05T01:06:06.572Z,5.10
2018-07-05T01:08:46.199Z,5.00
2018-07-05T01:11:25.718Z,4.70
2018-07-05T01:14:05.364Z,5.47
2018-07-05T01:16:44.786Z,4.80
2018-07-05T01:19:24.270Z,4.60
2018-07-05T01:21:57.749Z,4.53
2018-07-05T01:24:37.325Z,5.80
2018-07-05T01:27:16.902Z,6.00
2018-07-05T01:29:56.381Z,5.00
2018-07-05T01:32:35.926Z,4.83
2018-07-05T01:35:09.386Z,5.90
2018-07-05T01:37:49.041Z,6.73
2018-07-05T01:40:28.678Z,4.70
2018-07-05T01:43:08.090Z,4.17
2018-07-05T01:45:47.560Z,6.07
2018-07-05T01:48:27.064Z,5.50
2018-07-05T01:51:06.514Z,4.57
2018-07-05T01:53:46.062Z,4.50
2018-07-05T01:56:25.687Z,4.30
2018-07-05T01:59:05.269Z,3.87
2018-07-05T02:01:44.972Z,3.90
2018-07-05T02:04:24.449Z,4.43
2018-07-05T02:07:03.952Z,4.37
2018-07-05T02:09:43.494Z,5.30
2018-07-05T02:12:22.928Z,4.97
2018-07-05T02:15:02.454Z,4.53
2018-07-05T02:17:42.190Z,4.00
2018-07-05T02:20:21.824Z,4.63
2018-07-05T02:23:01.487Z,5.20
2018-07-05T02:25:40.938Z,4.73
2018-07-05T02:28:20.463Z,4.50
2018-07-05T02:31:00.007Z,4.10
2018-07-05T02:33:39.528Z,5.27
2018-07-05T02:36:18.998Z,4.13
2018-07-05T02:39:04.246Z,4.90
2018-07-05T02:41:43.758Z,4.87
2018-07-05T02:44:23.198Z,5.00
2018-07-05T02:47:02.650Z,4.00
2018-07-05T02:49:36.327Z,4.53
2018-07-05T02:52:15.913Z,4.10
2018-07-05T02:54:55.411Z,4.33
2018-07-05T02:57:34.939Z,4.37
2018-07-05T03:00:14.445Z,4.40
2018-07-05T03:02:53.927Z,4.80
2018-07-05T03:05:33.420Z,5.43
2018-07-05T03:08:12.885Z,4.80
2018-07-05T03:10:52.410Z,4.40
2018-07-05T03:13:31.998Z,4.80
2018-07-05T03:16:11.412Z,4.83
2018-07-05T03:18:50.978Z,4.73
2018-07-05T03:21:30.779Z,6.00
2018-07-05T03:24:10.418Z,5.03
2018-07-05T03:26:49.895Z,4.23
2018-07-05T03:29:29.366Z,5.03
2018-07-05T03:32:02.935Z,4.37
2018-07-05T03:34:42.556Z,4.20
2018-07-05T03:37:22.116Z,4.53
2018-07-05T03:40:01.659Z,5.53
2018-07-05T03:42:41.322Z,5.60
2018-07-05T03:45:14.974Z,4.50
2018-07-05T03:47:54.506Z,5.50
2018-07-05T03:50:33.950Z,7.90
2018-07-05T03:53:13.602Z,4.90
2018-07-05T03:55:53.198Z,4.67
2018-07-05T03:58:32.734Z,4.83
2018-07-05T04:01:06.347Z,5.43
2018-07-05T04:03:46.098Z,4.77
2018-07-05T04:06:25.610Z,5.43
2018-07-05T04:09:05.491Z,5.47
2018-07-05T04:11:45.123Z,5.00
2018-07-05T04:14:24.574Z,4.73
2018-07-05T04:17:04.131Z,4.47
2018-07-05T04:19:51.246Z,4.30
2018-07-05T04:22:30.822Z,5.37
2018-07-05T04:25:12.123Z,5.47
2018-07-05T04:27:51.567Z,4.90
2018-07-05T04:30:31.118Z,5.20
2018-07-05T04:33:10.537Z,5.10
2018-07-05T04:35:49.930Z,3.90
2018-07-05T04:38:29.394Z,4.30
2018-07-05T04:41:08.761Z,7.00
2018-07-05T04:43:48.358Z,16.53
2018-07-05T04:46:27.798Z,4.93
2018-07-05T04:49:07.389Z,4.80
2018-07-05T04:51:47.008Z,7.27
2018-07-05T04:54:26.473Z,5.13
2018-07-05T04:57:06.141Z,6.17
2018-07-05T04:59:45.789Z,5.10
2018-07-05T05:02:25.205Z,6.20
2018-07-05T05:05:04.737Z,5.53
2018-07-05T05:07:43.470Z,5.17
2018-07-05T05:10:22.910Z,5.00
2018-07-05T05:13:02.511Z,5.73
2018-07-05T05:15:42.100Z,5.10
2018-07-05T05:18:21.478Z,4.73
2018-07-05T05:21:01.136Z,5.30
2018-07-05T05:23:41.610Z,6.13
2018-07-05T05:26:21.202Z,5.30
2018-07-05T05:29:01.072Z,5.13
2018-07-05T05:31:40.557Z,5.80
2018-07-05T05:34:20.152Z,7.30
2018-07-05T05:36:59.730Z,4.47
2018-07-05T05:39:39.303Z,5.83
2018-07-05T05:42:18.852Z,4.93
2018-07-05T05:44:58.532Z,3.73
2018-07-05T05:47:38.002Z,4.30
2018-07-05T05:50:17.787Z,5.00
2018-07-05T05:52:57.358Z,4.90
2018-07-05T05:55:37.224Z,4.53
2018-07-05T05:58:17.070Z,3.70
2018-07-05T06:00:56.907Z,4.50
2018-07-05T06:03:36.268Z,3.53
2018-07-05T06:06:15.833Z,3.60
2018-07-05T06:08:55.273Z,7.80
2018-07-05T06:11:35.053Z,3.13
2018-07-05T06:14:14.639Z,3.30
2018-07-05T06:16:54.351Z,3.73
2018-07-05T06:19:33.876Z,4.60
2018-07-05T06:22:13.222Z,7.00
2018-07-05T06:24:52.790Z,3.00
2018-07-05T06:27:32.236Z,5.50
2018-07-05T06:30:11.846Z,3.60
2018-07-05T06:32:51.545Z,4.87
2018-07-05T06:35:31.239Z,3.40
2018-07-05T06:38:10.783Z,3.10
2018-07-05T06:40:50.270Z,3.17
2018-07-05T06:43:29.866Z,3.70
2018-07-05T06:46:03.613Z,3.20
2018-07-05T06:48:43.110Z,4.37
2018-07-05T06:51:22.578Z,3.37
2018-07-05T06:54:02.451Z,3.12
2018-07-05T06:56:41.982Z,3.90
2018-07-05T06:59:21.470Z,3.33
2018-07-05T07:02:00.845Z,3.63
2018-07-05T07:04:40.351Z,3.60
2018-07-05T07:07:19.750Z,3.23
2018-07-05T07:09:59.381Z,4.23
2018-07-05T07:12:38.933Z,4.13
2018-07-05T07:15:18.413Z,5.40
2018-07-05T07:17:57.998Z,4.80
2018-07-05T07:20:37.604Z,5.30
2018-07-05T07:23:17.091Z,5.70
2018-07-05T07:25:56.604Z,5.90
2018-07-05T07:28:36.098Z,4.70
2018-07-05T07:31:15.609Z,3.50
2018-07-05T07:33:54.966Z,3.63
2018-07-05T07:36:34.576Z,4.30
2018-07-05T07:39:14.124Z,4.10
2018-07-05T07:41:49.318Z,5.17
2018-07-05T07:44:17.724Z,5.30
2018-07-05T07:46:45.627Z,9.30
2018-07-05T07:49:13.237Z,4.17
2018-07-05T07:51:40.438Z,4.67
2018-07-05T07:54:07.676Z,4.10
2018-07-05T07:56:34.859Z,4.97
2018-07-05T07:59:02.122Z,5.13
2018-07-05T08:01:29.352Z,10.87
2018-07-05T08:03:56.561Z,5.37
2018-07-05T08:06:23.816Z,4.67
2018-07-05T08:08:51.010Z,5.93
2018-07-05T08:11:18.338Z,7.60
2018-07-05T08:13:45.651Z,4.90
2018-07-05T08:16:12.883Z,5.90
2018-07-05T08:18:40.135Z,5.23
2018-07-05T08:21:07.364Z,6.43
2018-07-05T08:23:34.578Z,7.43
2018-07-05T08:26:01.790Z,5.83
2018-07-05T08:28:29.061Z,8.00
2018-07-05T08:30:56.266Z,6.10
2018-07-05T08:33:23.506Z,6.23
2018-07-05T08:35:50.703Z,5.83
2018-07-05T08:38:17.910Z,5.43
2018-07-05T08:40:45.153Z,9.90
2018-07-05T08:43:12.359Z,7.07
2018-07-05T08:45:39.555Z,7.10
2018-07-05T08:48:06.809Z,10.47
2018-07-05T08:50:34.015Z,6.60
2018-07-05T08:53:01.475Z,6.23
2018-07-05T08:55:28.921Z,5.10
2018-07-05T08:57:56.282Z,5.93
2018-07-05T09:00:23.482Z,6.10
2018-07-05T09:02:50.745Z,6.13
2018-07-05T09:05:18.008Z,5.63
2018-07-05T09:07:45.220Z,6.40
2018-07-05T09:10:12.418Z,4.97
2018-07-05T09:12:39.636Z,6.13
2018-07-05T09:15:06.834Z,5.20
2018-07-05T09:17:34.122Z,5.17
2018-07-05T09:20:01.217Z,5.00
2018-07-05T09:22:28.404Z,5.27
2018-07-05T09:24:55.601Z,5.90
2018-07-05T09:27:22.790Z,5.87
2018-07-05T09:29:50.007Z,6.37
2018-07-05T09:32:17.264Z,4.03
2018-07-05T09:34:44.480Z,4.83
2018-07-05T09:37:11.798Z,10.37
2018-07-05T09:39:38.972Z,6.43
2018-07-05T09:42:06.226Z,5.57
2018-07-05T09:44:33.442Z,5.80
2018-07-05T09:47:01.136Z,6.20
2018-07-05T09:49:28.871Z,6.77
2018-07-05T09:51:56.090Z,5.97
2018-07-05T09:54:23.337Z,6.93
2018-07-05T09:56:50.583Z,6.17
2018-07-05T09:59:17.790Z,4.53
2018-07-05T10:01:45.040Z,7.63
2018-07-05T10:04:12.450Z,5.37
2018-07-05T10:06:39.663Z,4.47
2018-07-05T10:09:07.113Z,5.40
2018-07-05T10:11:34.822Z,4.93
2018-07-05T10:14:02.026Z,5.07
2018-07-05T10:16:29.291Z,5.33
2018-07-05T10:18:56.553Z,5.60
2018-07-05T10:21:23.778Z,5.07
2018-07-05T10:23:50.983Z,4.63
2018-07-05T10:26:19.030Z,6.00
2018-07-05T10:28:52.935Z,3.53
2018-07-05T10:31:26.325Z,3.90
2018-07-05T10:33:53.582Z,5.37
2018-07-05T10:36:20.793Z,4.57
2018-07-05T10:38:48.003Z,5.50
2018-07-05T10:41:27.619Z,5.77
2018-07-05T10:44:07.107Z,5.30
2018-07-05T10:46:46.698Z,8.60
2018-07-05T10:49:26.309Z,5.30
2018-07-05T10:52:06.877Z,5.53
2018-07-05T10:54:46.330Z,2.80
2018-07-05T10:57:25.721Z,3.90
2018-07-05T11:00:05.292Z,3.50
2018-07-05T11:02:44.703Z,4.33
2018-07-05T11:05:24.334Z,4.40
2018-07-05T11:08:03.923Z,5.00
2018-07-05T11:10:43.409Z,4.73
2018-07-05T11:13:22.743Z,6.03
2018-07-05T11:16:02.367Z,6.13
2018-07-05T11:18:41.838Z,6.47
2018-07-05T11:21:21.347Z,5.13
2018-07-05T11:24:00.934Z,6.50
2018-07-05T11:26:40.559Z,5.47
2018-07-05T11:29:20.381Z,5.37
2018-07-05T11:31:59.978Z,5.80
2018-07-05T11:34:39.480Z,8.00
2018-07-05T11:37:19.062Z,5.77
2018-07-05T11:39:58.522Z,4.40
2018-07-05T11:42:37.989Z,6.27
2018-07-05T11:45:17.745Z,8.20
2018-07-05T11:47:57.461Z,6.90
2018-07-05T11:50:37.034Z,6.27
2018-07-05T11:53:16.651Z,5.77
2018-07-05T11:55:56.363Z,6.43
2018-07-05T11:58:35.943Z,6.47
2018-07-05T12:01:15.465Z,6.60
2018-07-05T12:03:48.934Z,6.40
2018-07-05T12:06:28.451Z,7.43
2018-07-05T12:09:09.020Z,6.83
2018-07-05T12:11:49.087Z,5.90
2018-07-05T12:14:28.750Z,7.27
2018-07-05T12:17:08.404Z,6.73
2018-07-05T12:19:47.946Z,8.10
2018-07-05T12:22:27.602Z,7.30
2018-07-05T12:25:07.122Z,8.13
2018-07-05T12:27:46.603Z,8.00
2018-07-05T12:30:26.282Z,7.67
2018-07-05T12:33:05.904Z,8.27
2018-07-05T12:35:45.594Z,9.93
2018-07-05T12:38:25.260Z,7.73
2018-07-05T12:41:04.815Z,8.20
2018-07-05T12:43:44.190Z,9.50
2018-07-05T12:46:23.778Z,8.60
2018-07-05T12:49:03.380Z,9.27
2018-07-05T12:51:42.950Z,9.57
2018-07-05T12:54:22.627Z,9.13
2018-07-05T12:57:02.146Z,13.17
2018-07-05T12:59:41.562Z,9.00
2018-07-05T13:02:15.183Z,9.80
2018-07-05T13:04:54.758Z,12.47
2018-07-05T13:07:34.453Z,13.37
2018-07-05T13:10:14.107Z,14.97
2018-07-05T13:12:53.707Z,14.80
2018-07-05T13:15:33.391Z,16.37
2018-07-05T13:18:12.911Z,15.73
2018-07-05T13:20:52.537Z,18.30
2018-07-05T13:23:32.206Z,16.93
2018-07-05T13:26:05.798Z,17.57
2018-07-05T13:28:39.387Z,15.13
2018-07-05T13:31:18.969Z,13.97
2018-07-05T13:33:58.712Z,13.43
2018-07-05T13:36:38.367Z,13.00
2018-07-05T13:39:17.969Z,11.47
2018-07-05T13:41:57.465Z,10.03
2018-07-05T13:44:37.107Z,9.80
2018-07-05T13:47:16.652Z,9.10
2018-07-05T13:49:56.240Z,8.60
2018-07-05T13:52:35.833Z,7.90
2018-07-05T13:55:15.413Z,6.53
2018-07-05T13:57:54.983Z,5.67
2018-07-05T14:00:34.687Z,7.20
2018-07-05T14:03:14.242Z,4.83
2018-07-05T14:05:53.787Z,7.20
2018-07-05T14:08:33.439Z,5.33
2018-07-05T14:11:12.927Z,4.73
2018-07-05T14:13:52.464Z,7.23
2018-07-05T14:16:31.994Z,5.07
2018-07-05T14:19:12.036Z,6.37
2018-07-05T14:21:51.623Z,4.40
2018-07-05T14:24:31.225Z,4.10
2018-07-05T14:27:10.726Z,5.57
2018-07-05T14:29:44.265Z,5.43
2018-07-05T14:32:23.787Z,5.30
2018-07-05T14:35:03.396Z,5.90
2018-07-05T14:37:42.848Z,4.87
2018-07-05T14:40:23.452Z,5.23
2018-07-05T14:43:02.953Z,4.90
2018-07-05T14:45:42.667Z,4.33
2018-07-05T14:48:22.214Z,4.10
2018-07-05T14:51:01.887Z,4.83
2018-07-05T14:53:41.387Z,4.87
2018-07-05T14:56:20.878Z,6.60
2018-07-05T14:59:00.419Z,4.10
2018-07-05T15:01:39.896Z,4.20
2018-07-05T15:04:19.512Z,5.40
2018-07-05T15:06:58.950Z,5.10
2018-07-05T15:09:38.513Z,4.30
2018-07-05T15:12:17.946Z,5.27
2018-07-05T15:14:57.683Z,5.00
2018-07-05T15:17:37.150Z,5.30
2018-07-05T15:20:16.655Z,8.30
2018-07-05T15:22:56.601Z,5.73
2018-07-05T15:25:36.194Z,5.13
2018-07-05T15:28:15.627Z,6.97
2018-07-05T15:30:55.185Z,4.77
2018-07-05T15:33:34.706Z,6.20
2018-07-05T15:36:14.380Z,5.13
2018-07-05T15:38:53.975Z,4.60
2018-07-05T15:41:33.626Z,5.30
2018-07-05T15:44:13.264Z,6.20
2018-07-05T15:46:52.885Z,5.70
2018-07-05T15:49:32.470Z,6.87
2018-07-05T15:52:12.116Z,6.40
2018-07-05T15:54:45.737Z,5.63
2018-07-05T15:57:25.360Z,4.53
2018-07-05T16:00:04.827Z,3.80
2018-07-05T16:02:44.327Z,4.17
2018-07-05T16:05:24.143Z,3.80
2018-07-05T16:08:03.672Z,4.73
2018-07-05T16:10:43.284Z,6.00
2018-07-05T16:13:22.833Z,3.30
2018-07-05T16:16:02.436Z,3.40
2018-07-05T16:18:41.938Z,5.00
2018-07-05T16:21:21.393Z,3.27
2018-07-05T16:24:00.956Z,3.30
2018-07-05T16:26:40.425Z,4.43
2018-07-05T16:29:19.921Z,5.00
2018-07-05T16:31:59.289Z,4.03
2018-07-05T16:34:38.900Z,3.80
2018-07-05T16:37:18.462Z,4.93
2018-07-05T16:39:58.069Z,3.90
2018-07-05T16:42:37.626Z,3.30
2018-07-05T16:45:17.233Z,4.77
2018-07-05T16:47:57.031Z,4.90
2018-07-05T16:50:36.786Z,4.67
2018-07-05T16:53:16.277Z,5.20
2018-07-05T16:55:55.941Z,4.40
2018-07-05T16:58:35.567Z,4.87
2018-07-05T17:01:15.066Z,5.30
2018-07-05T17:03:54.697Z,5.50
2018-07-05T17:06:34.319Z,4.67
2018-07-05T17:09:14.032Z,4.77
2018-07-05T17:11:53.610Z,4.40
2018-07-05T17:14:33.243Z,3.90
2018-07-05T17:17:12.662Z,3.13
2018-07-05T17:19:52.196Z,5.10
2018-07-05T17:22:31.733Z,3.57
2018-07-05T17:25:11.157Z,3.57
2018-07-05T17:27:50.744Z,3.50
2018-07-05T17:30:30.375Z,3.40
2018-07-05T17:33:09.827Z,3.90
2018-07-05T17:35:49.333Z,3.87
2018-07-05T17:38:28.814Z,3.63
2018-07-05T17:41:08.530Z,4.40
2018-07-05T17:43:48.064Z,7.40
2018-07-05T17:46:27.859Z,6.10
2018-07-05T17:49:07.474Z,5.50
2018-07-05T17:51:47.967Z,3.40
2018-07-05T17:54:27.583Z,3.60
2018-07-05T17:57:07.184Z,6.47
2018-07-05T17:59:46.550Z,3.67
2018-07-05T18:02:26.210Z,3.77
2018-07-05T18:05:05.782Z,4.67
2018-07-05T18:07:45.286Z,4.47
2018-07-05T18:10:24.783Z,3.93
2018-07-05T18:13:04.463Z,4.37
2018-07-05T18:15:44.002Z,5.00
2018-07-05T18:18:23.542Z,3.47
2018-07-05T18:21:03.158Z,3.80
2018-07-05T18:23:42.854Z,3.17
2018-07-05T18:26:16.394Z,3.07
2018-07-05T18:28:55.859Z,3.53
2018-07-05T18:31:35.454Z,3.63
2018-07-05T18:34:15.054Z,3.60
2018-07-05T18:36:54.563Z,3.73
2018-07-05T18:39:34.040Z,3.83
2018-07-05T18:42:13.683Z,3.60
2018-07-05T18:44:53.114Z,3.90
2018-07-05T18:47:33.467Z,3.53
2018-07-05T18:50:13.083Z,3.23
2018-07-05T18:52:52.729Z,3.80
2018-07-05T18:55:32.319Z,3.53
2018-07-05T18:58:11.802Z,3.90
2018-07-05T19:00:51.394Z,3.80
2018-07-05T19:03:31.033Z,2.97
2018-07-05T19:06:10.522Z,2.90
2018-07-05T19:08:50.046Z,3.23
2018-07-05T19:11:29.531Z,3.20
2018-07-05T19:14:08.950Z,3.37
2018-07-05T19:16:48.556Z,2.63
2018-07-05T19:19:28.082Z,2.50
2018-07-05T19:22:07.655Z,2.63
2018-07-05T19:24:47.055Z,3.10
2018-07-05T19:27:26.642Z,3.10
2018-07-05T19:30:06.112Z,2.77
2018-07-05T19:32:45.568Z,3.43
2018-07-05T19:35:25.023Z,3.57
2018-07-05T19:38:04.618Z,3.57
2018-07-05T19:40:44.165Z,3.00
2018-07-05T19:43:23.744Z,3.10
2018-07-05T19:46:03.244Z,3.10
2018-07-05T19:48:42.839Z,3.50
2018-07-05T19:51:22.406Z,3.47
2018-07-05T19:54:01.863Z,2.83
2018-07-05T19:56:41.367Z,2.50
2018-07-05T19:59:21.118Z,4.97
2018-07-05T20:02:00.657Z,3.30
2018-07-05T20:04:40.004Z,4.27
2018-07-05T20:07:19.558Z,4.30
2018-07-05T20:09:59.115Z,5.47
2018-07-05T20:12:38.693Z,4.80
2018-07-05T20:15:18.327Z,4.80
2018-07-05T20:17:51.918Z,5.87
2018-07-05T20:20:25.629Z,6.00
2018-07-05T20:23:05.305Z,6.47
2018-07-05T20:25:44.906Z,5.73
2018-07-05T20:28:25.122Z,6.37
2018-07-05T20:31:04.589Z,6.60
2018-07-05T20:33:44.122Z,6.47
2018-07-05T20:36:23.647Z,8.20
2018-07-05T20:39:04.289Z,7.00
2018-07-05T20:41:43.978Z,8.10
2018-07-05T20:44:23.559Z,7.40
2018-07-05T20:47:03.248Z,7.37
2018-07-05T20:49:42.810Z,7.47
2018-07-05T20:52:22.284Z,7.93
2018-07-05T20:55:01.747Z,7.43
2018-07-05T20:57:41.342Z,7.83
2018-07-05T21:00:14.830Z,7.67
2018-07-05T21:02:54.277Z,8.30
2018-07-05T21:05:33.858Z,8.70
2018-07-05T21:08:13.342Z,8.97
2018-07-05T21:10:52.851Z,7.97
2018-07-05T21:13:32.322Z,7.73
2018-07-05T21:16:11.803Z,7.27
2018-07-05T21:18:51.289Z,7.73
2018-07-05T21:21:30.750Z,7.53
2018-07-05T21:24:04.389Z,5.73
2018-07-05T21:26:43.934Z,6.67
2018-07-05T21:29:23.402Z,6.40
2018-07-05T21:32:02.868Z,6.27
2018-07-05T21:34:42.349Z,6.40
2018-07-05T21:37:21.937Z,5.70
2018-07-05T21:40:01.502Z,4.97
2018-07-05T21:42:41.027Z,5.40
2018-07-05T21:45:20.827Z,5.83
2018-07-05T21:48:00.302Z,5.20
2018-07-05T21:50:39.806Z,5.83
2018-07-05T21:53:19.242Z,5.20
2018-07-05T21:55:58.759Z,5.70
2018-07-05T21:58:38.138Z,5.50
2018-07-05T22:01:17.762Z,5.40
2018-07-05T22:03:57.110Z,5.50
2018-07-05T22:06:36.976Z,5.70
2018-07-05T22:09:16.414Z,5.30
2018-07-05T22:11:55.931Z,5.87
2018-07-05T22:14:35.449Z,6.17
2018-07-05T22:19:27.935Z,5.30
2018-07-05T22:22:12.927Z,5.10
2018-07-05T22:24:57.958Z,5.67
2018-07-05T22:27:43.224Z,5.80
2018-07-05T22:30:28.222Z,5.53
2018-07-05T22:33:07.866Z,6.30
2018-07-05T22:35:47.374Z,5.60
2018-07-05T22:38:26.840Z,5.20
2018-07-05T22:41:06.366Z,6.00
2018-07-05T22:43:45.896Z,5.90
2018-07-05T22:46:25.410Z,6.13
2018-07-05T22:49:05.076Z,6.00
2018-07-05T22:51:44.618Z,6.03
2018-07-05T22:54:24.121Z,5.80
2018-07-05T22:57:03.714Z,6.10
2018-07-05T22:59:43.201Z,7.47
2018-07-05T23:02:16.773Z,7.23
2018-07-05T23:04:56.226Z,7.33
2018-07-05T23:07:35.661Z,6.90
2018-07-05T23:10:15.477Z,7.40
2018-07-05T23:12:54.940Z,8.10
2018-07-05T23:15:34.570Z,7.70
2018-07-05T23:18:14.115Z,8.13
2018-07-05T23:20:53.598Z,8.07
2018-07-05T23:23:33.137Z,8.70
2018-07-05T23:26:12.660Z,7.73
2018-07-05T23:28:52.196Z,8.30
2018-07-05T23:31:31.739Z,8.30
2018-07-05T23:34:11.310Z,9.30
2018-07-05T23:36:50.846Z,7.73
2018-07-05T23:39:30.368Z,8.60
2018-07-05T23:42:09.934Z,8.07
2018-07-05T23:44:49.464Z,7.47
2018-07-05T23:47:28.994Z,8.03
2018-07-05T23:50:08.550Z,7.63
2018-07-05T23:52:48.218Z,7.20
2018-07-05T23:55:27.701Z,7.90
2018-07-05T23:58:07.239Z,6.43
